createdAt,value
2023-01-11T00:01:03.664Z,7.55
2023-01-11T00:03:31.165Z,4.78
2023-01-11T00:05:59.244Z,9.65
2023-01-11T00:08:29.052Z,6.68
2023-01-11T00:10:55.722Z,5.18
2023-01-11T00:13:22.706Z,4.20
2023-01-11T00:15:49.494Z,6.07
2023-01-11T00:18:16.131Z,6.88
2023-01-11T00:20:42.747Z,4.55
2023-01-11T00:23:09.818Z,6.97
2023-01-11T00:25:37.415Z,10.02
2023-01-11T00:28:05.493Z,4.97
2023-01-11T00:30:32.300Z,3.83
2023-01-11T00:33:00.159Z,5.47
2023-01-11T00:35:27.833Z,7.10
2023-01-11T00:37:54.631Z,5.20
2023-01-11T00:40:21.963Z,6.30
2023-01-11T00:43:07.413Z,6.72
2023-01-11T00:45:52.817Z,6.57
2023-01-11T00:50:46.106Z,6.35
2023-01-11T00:53:14.274Z,8.43
2023-01-11T00:55:41.008Z,7.47
2023-01-11T00:58:07.629Z,4.03
2023-01-11T01:00:34.281Z,8.02
2023-01-11T01:03:00.960Z,5.72
2023-01-11T01:05:27.919Z,6.82
2023-01-11T01:07:54.602Z,6.88
2023-01-11T01:10:21.770Z,7.93
2023-01-11T01:13:07.069Z,7.57
2023-01-11T01:15:34.280Z,5.22
2023-01-11T01:18:00.976Z,4.95
2023-01-11T01:20:28.075Z,7.88
2023-01-11T01:22:54.967Z,7.30
2023-01-11T01:25:21.874Z,8.75
2023-01-11T01:27:48.659Z,4.30
2023-01-11T01:30:15.617Z,9.02
2023-01-11T01:32:42.442Z,7.25
2023-01-11T01:35:09.472Z,7.22
2023-01-11T01:37:36.168Z,6.55
2023-01-11T01:40:03.366Z,6.97
2023-01-11T01:42:30.166Z,4.15
2023-01-11T01:45:41.590Z,8.05
2023-01-11T01:48:12.701Z,6.60
2023-01-11T01:50:53.486Z,6.80
2023-01-11T01:53:31.717Z,8.57
2023-01-11T01:56:01.413Z,9.77
2023-01-11T01:58:32.434Z,6.93
2023-01-11T02:01:19.121Z,5.38
2023-01-11T02:03:46.893Z,6.72
2023-01-11T02:06:13.948Z,5.03
2023-01-11T02:08:46.175Z,5.38
2023-01-11T02:11:30.102Z,10.00
2023-01-11T02:14:03.310Z,6.25
2023-01-11T02:16:30.098Z,7.57
2023-01-11T02:18:58.246Z,5.85
2023-01-11T02:22:02.482Z,6.15
2023-01-11T02:24:47.864Z,8.07
2023-01-11T02:30:21.452Z,5.63
2023-01-11T02:33:09.149Z,6.20
2023-01-11T02:36:04.558Z,5.30
2023-01-11T02:38:40.440Z,6.43
2023-01-11T02:41:13.018Z,7.70
2023-01-11T02:44:14.220Z,4.68
2023-01-11T02:46:44.268Z,7.05
2023-01-11T02:49:21.601Z,5.72
2023-01-11T02:52:08.127Z,5.55
2023-01-11T02:54:37.899Z,5.70
2023-01-11T02:57:05.849Z,4.53
2023-01-11T02:59:34.731Z,9.98
2023-01-11T03:02:02.337Z,9.43
2023-01-11T03:04:34.222Z,8.25
2023-01-11T03:07:07.117Z,6.07
2023-01-11T03:09:50.520Z,5.68
2023-01-11T03:12:54.850Z,10.15
2023-01-11T03:16:02.851Z,5.65
2023-01-11T03:18:41.787Z,6.25
2023-01-11T03:21:26.577Z,6.53
2023-01-11T03:24:13.736Z,6.68
2023-01-11T03:26:52.981Z,6.25
2023-01-11T03:29:32.405Z,7.13
2023-01-11T03:32:23.732Z,9.15
2023-01-11T03:35:19.485Z,7.60
2023-01-11T03:37:55.156Z,7.00
2023-01-11T03:40:38.146Z,6.15
2023-01-11T03:43:12.698Z,7.25
2023-01-11T03:45:42.543Z,7.97
2023-01-11T03:48:14.248Z,6.75
2023-01-11T03:50:42.149Z,7.90
2023-01-11T03:53:10.105Z,7.20
2023-01-11T03:55:42.236Z,10.77
2023-01-11T03:58:09.589Z,4.53
2023-01-11T04:00:37.695Z,5.60
2023-01-11T04:03:05.238Z,7.13
2023-01-11T04:05:32.877Z,8.23
2023-01-11T04:07:59.620Z,7.63
2023-01-11T04:10:26.258Z,7.03
2023-01-11T04:12:52.964Z,7.30
2023-01-11T04:15:19.896Z,6.82
2023-01-11T04:17:46.594Z,4.97
2023-01-11T04:20:13.504Z,6.80
2023-01-11T04:22:40.241Z,6.35
2023-01-11T04:25:08.916Z,7.10
2023-01-11T04:27:35.781Z,8.95
2023-01-11T04:30:02.765Z,5.10
2023-01-11T04:32:29.380Z,7.65
2023-01-11T04:34:55.995Z,8.60
2023-01-11T04:37:22.672Z,7.38
2023-01-11T04:39:49.303Z,8.13
2023-01-11T04:42:18.956Z,7.90
2023-01-11T04:44:50.064Z,5.82
2023-01-11T04:47:18.235Z,6.93
2023-01-11T04:49:45.484Z,5.68
2023-01-11T04:52:14.391Z,10.45
2023-01-11T04:54:41.787Z,8.50
2023-01-11T04:57:12.474Z,5.00
2023-01-11T04:59:39.181Z,8.30
2023-01-11T05:02:06.020Z,8.88
2023-01-11T05:04:33.339Z,7.47
2023-01-11T05:07:00.131Z,4.85
2023-01-11T05:09:26.847Z,4.50
2023-01-11T05:11:53.536Z,6.07
2023-01-11T05:14:20.258Z,5.22
2023-01-11T05:16:46.970Z,6.22
2023-01-11T05:19:14.549Z,6.20
2023-01-11T05:21:42.112Z,5.60
2023-01-11T05:24:12.770Z,6.13
2023-01-11T05:26:41.501Z,5.20
2023-01-11T05:29:11.947Z,4.43
2023-01-11T05:31:40.210Z,5.72
2023-01-11T05:34:07.841Z,5.28
2023-01-11T05:36:35.537Z,7.43
2023-01-11T05:39:02.523Z,6.65
2023-01-11T05:41:29.276Z,5.55
2023-01-11T05:44:14.867Z,8.70
2023-01-11T05:46:43.373Z,5.57
2023-01-11T05:49:12.151Z,11.38
2023-01-11T05:51:39.607Z,6.75
2023-01-11T05:54:09.604Z,6.63
2023-01-11T05:56:36.420Z,7.70
2023-01-11T05:59:04.138Z,6.70
2023-01-11T06:01:31.315Z,6.18
2023-01-11T06:03:58.020Z,7.25
2023-01-11T06:06:25.769Z,5.72
2023-01-11T06:08:52.495Z,8.80
2023-01-11T06:11:19.433Z,8.52
2023-01-11T06:13:46.345Z,8.93
2023-01-11T06:16:18.285Z,7.35
2023-01-11T06:18:50.423Z,7.15
2023-01-11T06:21:18.231Z,6.55
2023-01-11T06:23:47.361Z,7.82
2023-01-11T06:26:16.580Z,7.65
2023-01-11T06:28:53.381Z,8.13
2023-01-11T06:31:37.602Z,12.50
2023-01-11T06:34:04.205Z,7.90
2023-01-11T06:36:31.074Z,7.93
2023-01-11T06:38:57.807Z,8.80
2023-01-11T06:41:24.623Z,8.63
2023-01-11T06:43:51.509Z,7.75
2023-01-11T06:46:18.963Z,7.78
2023-01-11T06:48:49.371Z,7.75
2023-01-11T06:51:16.623Z,7.18
2023-01-11T06:53:44.734Z,8.05
2023-01-11T06:56:14.745Z,8.60
2023-01-11T06:58:42.050Z,9.90
2023-01-11T07:01:08.760Z,7.47
2023-01-11T07:03:42.032Z,9.35
2023-01-11T07:06:09.967Z,9.90
2023-01-11T07:08:38.742Z,10.18
2023-01-11T07:11:12.085Z,9.57
2023-01-11T07:13:43.718Z,8.50
2023-01-11T07:16:11.311Z,10.15
2023-01-11T07:18:38.686Z,9.23
2023-01-11T07:21:06.410Z,8.82
2023-01-11T07:23:36.945Z,13.27
2023-01-11T07:26:04.541Z,10.13
2023-01-11T07:28:31.376Z,12.25
2023-01-11T07:30:59.933Z,11.50
2023-01-11T07:33:27.353Z,11.30
2023-01-11T07:35:54.188Z,9.43
2023-01-11T07:38:24.547Z,10.00
2023-01-11T07:40:53.405Z,10.15
2023-01-11T07:43:23.598Z,9.32
2023-01-11T07:45:55.652Z,9.13
2023-01-11T07:48:26.156Z,11.40
2023-01-11T07:50:53.585Z,9.10
2023-01-11T07:53:20.942Z,9.88
2023-01-11T07:55:47.929Z,9.50
2023-01-11T07:58:15.487Z,10.25
2023-01-11T08:00:42.377Z,11.98
2023-01-11T08:03:09.873Z,7.93
2023-01-11T08:05:36.841Z,7.85
2023-01-11T08:08:04.395Z,11.45
2023-01-11T08:10:31.301Z,9.82
2023-01-11T08:13:16.849Z,8.38
2023-01-11T08:18:11.931Z,7.38
2023-01-11T08:20:39.432Z,6.97
2023-01-11T08:23:07.784Z,7.03
2023-01-11T08:25:34.439Z,7.05
2023-01-11T08:28:02.657Z,7.80
2023-01-11T08:30:30.098Z,7.32
2023-01-11T08:32:57.438Z,8.13
2023-01-11T08:35:26.952Z,6.70
2023-01-11T08:37:54.071Z,7.65
2023-01-11T08:40:23.704Z,8.35
2023-01-11T08:42:56.934Z,6.95
2023-01-11T08:45:24.003Z,5.57
2023-01-11T08:47:51.905Z,7.43
2023-01-11T08:50:18.815Z,7.03
2023-01-11T08:52:46.280Z,10.63
2023-01-11T08:55:13.104Z,7.72
2023-01-11T08:57:39.778Z,9.27
2023-01-11T09:00:08.623Z,7.15
2023-01-11T09:02:35.347Z,6.38
2023-01-11T09:05:02.172Z,7.80
2023-01-11T09:07:29.156Z,8.63
2023-01-11T09:09:55.780Z,7.93
2023-01-11T09:12:22.408Z,7.47
2023-01-11T09:14:49.273Z,7.07
2023-01-11T09:17:15.910Z,6.07
2023-01-11T09:19:42.574Z,7.13
2023-01-11T09:22:09.229Z,8.40
2023-01-11T09:24:35.892Z,5.93
2023-01-11T09:27:04.727Z,6.18
2023-01-11T09:29:31.880Z,6.80
2023-01-11T09:31:58.641Z,7.05
2023-01-11T09:34:27.162Z,5.25
2023-01-11T09:36:56.081Z,6.72
2023-01-11T09:39:26.291Z,6.18
2023-01-11T09:42:15.238Z,5.65
2023-01-11T09:44:57.993Z,5.03
2023-01-11T09:47:45.243Z,4.22
2023-01-11T09:50:23.522Z,4.95
2023-01-11T09:52:54.710Z,5.93
2023-01-11T09:55:32.930Z,5.32
2023-01-11T09:58:22.861Z,5.68
2023-01-11T10:01:12.572Z,6.03
2023-01-11T10:04:04.043Z,4.80
2023-01-11T10:06:42.767Z,4.30
2023-01-11T10:18:31.227Z,6.57
2023-01-11T10:19:33.517Z,6.22
2023-01-11T10:22:04.431Z,4.47
2023-01-11T10:24:35.149Z,4.90
2023-01-11T10:27:08.143Z,4.32
2023-01-11T10:30:04.140Z,5.82
2023-01-11T10:33:02.014Z,4.45
2023-01-11T10:38:57.669Z,4.68
2023-01-11T10:42:03.792Z,4.75
2023-01-11T10:44:42.249Z,3.72
2023-01-11T10:47:16.316Z,5.15
2023-01-11T10:49:52.076Z,4.63
2023-01-11T10:52:35.486Z,2.90
2023-01-11T10:55:12.981Z,4.72
2023-01-11T10:57:59.534Z,4.05
2023-01-11T11:00:44.943Z,4.38
2023-01-11T11:03:38.814Z,3.33
2023-01-11T11:06:43.283Z,3.42
2023-01-11T11:09:49.783Z,4.22
2023-01-11T11:12:25.086Z,4.90
2023-01-11T11:15:10.184Z,5.70
2023-01-11T11:17:44.592Z,5.78
2023-01-11T11:20:17.139Z,4.70
2023-01-11T11:22:45.070Z,4.65
2023-01-11T11:25:22.941Z,4.35
2023-01-11T11:27:52.567Z,3.90
2023-01-11T11:30:30.383Z,5.68
2023-01-11T11:33:08.267Z,7.10
2023-01-11T11:35:41.203Z,6.72
2023-01-11T11:38:21.292Z,6.38
2023-01-11T11:41:06.912Z,7.07
2023-01-11T11:43:36.757Z,6.63
2023-01-11T11:46:27.552Z,6.50
2023-01-11T11:49:12.078Z,5.43
2023-01-11T11:51:39.853Z,8.20
2023-01-11T11:54:06.601Z,6.93
2023-01-11T11:56:35.176Z,5.07
2023-01-11T11:59:13.489Z,5.68
2023-01-11T12:01:47.184Z,6.15
2023-01-11T12:04:24.387Z,5.82
2023-01-11T12:07:04.372Z,6.25
2023-01-11T12:09:33.458Z,5.78
2023-01-11T12:12:00.796Z,6.18
2023-01-11T12:14:30.133Z,3.75
2023-01-11T12:16:58.951Z,5.65
2023-01-11T12:19:30.360Z,5.07
2023-01-11T12:22:24.518Z,5.10
2023-01-11T12:25:18.936Z,5.93
2023-01-11T12:27:57.404Z,6.25
2023-01-11T12:30:56.326Z,5.35
2023-01-11T12:34:01.677Z,4.88
2023-01-11T12:36:34.120Z,6.53
2023-01-11T12:39:10.522Z,5.38
2023-01-11T12:41:58.603Z,5.47
2023-01-11T12:44:52.360Z,5.43
2023-01-11T12:48:16.626Z,6.32
2023-01-11T12:51:15.496Z,6.72
2023-01-11T12:54:11.502Z,7.55
2023-01-11T12:57:06.056Z,5.43
2023-01-11T12:59:52.430Z,6.93
2023-01-11T13:02:37.007Z,8.73
2023-01-11T13:05:15.602Z,7.50
2023-01-11T13:08:24.965Z,7.43
2023-01-11T13:11:10.956Z,7.72
2023-01-11T13:14:12.710Z,6.85
2023-01-11T13:17:01.557Z,6.72
2023-01-11T13:19:39.792Z,6.05
2023-01-11T13:22:15.355Z,4.38
2023-01-11T13:24:45.770Z,5.70
2023-01-11T13:27:17.816Z,4.82
2023-01-11T13:29:47.584Z,4.78
2023-01-11T13:32:22.163Z,4.70
2023-01-11T13:34:54.247Z,3.80
2023-01-11T13:37:53.211Z,5.18
2023-01-11T13:40:33.870Z,5.00
2023-01-11T13:43:34.685Z,5.47
2023-01-11T13:46:23.936Z,5.47
2023-01-11T13:49:04.943Z,8.50
2023-01-11T13:51:42.550Z,6.63
2023-01-11T13:54:19.608Z,8.68
2023-01-11T13:56:55.502Z,8.48
2023-01-11T13:59:40.873Z,8.05
2023-01-11T14:02:14.298Z,6.20
2023-01-11T14:04:56.309Z,8.43
2023-01-11T14:08:00.840Z,6.43
2023-01-11T14:10:30.257Z,5.20
2023-01-11T14:13:45.681Z,6.85
2023-01-11T14:16:15.075Z,5.40
2023-01-11T14:19:04.488Z,7.88
2023-01-11T14:21:43.656Z,7.38
2023-01-11T14:24:11.317Z,6.63
2023-01-11T14:27:13.018Z,6.30
2023-01-11T14:29:49.541Z,6.90
2023-01-11T14:32:36.981Z,6.88
2023-01-11T14:35:22.592Z,6.85
2023-01-11T14:38:12.715Z,6.53
2023-01-11T14:40:54.344Z,6.22
2023-01-11T14:43:32.467Z,5.88
2023-01-11T14:46:23.430Z,4.95
2023-01-11T14:49:20.706Z,5.07
2023-01-11T14:51:54.521Z,6.63
2023-01-11T14:54:28.954Z,6.60
2023-01-11T14:56:57.693Z,5.85
2023-01-11T14:59:39.188Z,6.72
2023-01-11T15:02:05.841Z,6.32
2023-01-11T15:04:35.967Z,8.10
2023-01-11T15:07:24.039Z,8.48
2023-01-11T15:09:53.582Z,8.13
2023-01-11T15:12:42.080Z,9.30
2023-01-11T15:15:18.514Z,9.15
2023-01-11T15:18:04.276Z,10.23
2023-01-11T15:20:33.480Z,9.85
2023-01-11T15:23:03.630Z,7.88
2023-01-11T15:25:33.851Z,11.75
2023-01-11T15:28:32.351Z,9.30
2023-01-11T15:30:59.045Z,10.80
2023-01-11T15:33:45.973Z,7.68
2023-01-11T15:36:12.841Z,9.30
2023-01-11T15:38:56.998Z,10.23
2023-01-11T15:42:04.917Z,8.57
2023-01-11T15:45:02.277Z,10.95
2023-01-11T15:47:39.053Z,8.52
2023-01-11T15:51:08.816Z,8.23
2023-01-11T15:54:14.086Z,10.07
2023-01-11T15:57:06.144Z,9.65
2023-01-11T15:59:38.503Z,16.17
2023-01-11T16:02:13.946Z,9.88
2023-01-11T16:04:45.866Z,11.93
2023-01-11T16:07:47.273Z,10.93
2023-01-11T16:10:35.496Z,9.75
2023-01-11T16:13:26.178Z,7.00
2023-01-11T16:16:26.963Z,9.70
2023-01-11T16:18:57.991Z,11.90
2023-01-11T16:21:41.794Z,11.75
2023-01-11T16:24:13.396Z,10.23
2023-01-11T16:26:41.211Z,14.07
2023-01-11T16:29:14.044Z,12.20
2023-01-11T16:31:59.635Z,8.40
2023-01-11T16:34:28.906Z,8.55
2023-01-11T16:36:57.516Z,9.35
2023-01-11T16:39:29.973Z,11.82
2023-01-11T16:42:06.523Z,13.98
2023-01-11T16:44:49.250Z,11.38
2023-01-11T16:47:17.891Z,8.27
2023-01-11T16:49:49.853Z,11.30
2023-01-11T16:52:28.791Z,9.40
2023-01-11T16:54:56.887Z,11.93
2023-01-11T16:57:35.813Z,10.48
2023-01-11T17:00:07.028Z,11.05
2023-01-11T17:02:40.069Z,16.98
2023-01-11T17:05:23.714Z,12.50
2023-01-11T17:07:50.694Z,12.57
2023-01-11T17:10:27.738Z,14.23
2023-01-11T17:13:50.727Z,12.02
2023-01-11T17:16:18.447Z,13.00
2023-01-11T17:18:45.381Z,11.52
2023-01-11T17:21:22.511Z,11.90
2023-01-11T17:23:51.534Z,11.43
2023-01-11T17:26:24.319Z,8.60
2023-01-11T17:28:58.261Z,11.23
2023-01-11T17:31:28.393Z,10.38
2023-01-11T17:34:15.573Z,11.30
2023-01-11T17:36:43.427Z,12.38
2023-01-11T17:39:21.855Z,14.77
2023-01-11T17:42:07.573Z,12.00
2023-01-11T17:44:53.750Z,17.40
2023-01-11T17:47:21.379Z,14.25
2023-01-11T17:49:50.467Z,15.18
2023-01-11T17:52:24.635Z,14.77
2023-01-11T17:55:03.092Z,16.15
2023-01-11T17:57:30.566Z,13.93
2023-01-11T18:00:18.545Z,14.63
2023-01-11T18:02:46.379Z,16.17
2023-01-11T18:05:18.691Z,13.82
2023-01-11T18:07:50.983Z,14.68
2023-01-11T18:10:21.341Z,16.08
2023-01-11T18:12:49.741Z,13.93
2023-01-11T18:15:27.584Z,15.07
2023-01-11T18:17:56.999Z,13.85
2023-01-11T18:20:38.066Z,17.85
2023-01-11T18:23:22.596Z,17.65
2023-01-11T18:25:49.486Z,12.15
2023-01-11T18:28:25.973Z,13.75
2023-01-11T18:30:54.407Z,13.73
2023-01-11T18:33:23.855Z,15.73
2023-01-11T18:35:57.880Z,13.60
2023-01-11T18:38:33.214Z,10.20
2023-01-11T18:41:26.991Z,12.27
2023-01-11T18:43:54.719Z,13.38
2023-01-11T18:46:21.706Z,16.23
2023-01-11T18:48:48.363Z,16.15
2023-01-11T18:51:18.673Z,13.15
2023-01-11T18:53:45.328Z,11.32
2023-01-11T18:56:13.369Z,12.48
2023-01-11T18:58:40.108Z,16.77
2023-01-11T19:01:08.514Z,14.77
2023-01-11T19:03:35.749Z,11.05
2023-01-11T19:06:02.384Z,18.27
2023-01-11T19:08:30.722Z,10.63
2023-01-11T19:10:58.157Z,20.33
2023-01-11T19:13:24.940Z,10.88
2023-01-11T19:15:51.702Z,14.93
2023-01-11T19:18:18.413Z,12.57
2023-01-11T19:20:45.056Z,12.23
2023-01-11T19:23:11.675Z,13.95
2023-01-11T19:25:38.375Z,14.30
2023-01-11T19:28:05.962Z,14.45
2023-01-11T19:30:32.689Z,12.18
2023-01-11T19:32:59.338Z,13.20
2023-01-11T19:35:26.054Z,13.00
2023-01-11T19:37:52.920Z,11.73
2023-01-11T19:40:21.211Z,13.93
2023-01-11T19:42:47.856Z,13.30
2023-01-11T19:45:14.540Z,13.75
2023-01-11T19:47:41.265Z,13.63
2023-01-11T19:50:08.508Z,14.15
2023-01-11T19:52:35.149Z,10.63
2023-01-11T19:55:01.826Z,13.30
2023-01-11T19:57:29.515Z,8.88
2023-01-11T19:59:56.182Z,11.23
2023-01-11T20:02:22.983Z,12.55
2023-01-11T20:04:49.759Z,12.32
2023-01-11T20:07:17.050Z,12.73
2023-01-11T20:09:44.143Z,13.30
2023-01-11T20:12:12.944Z,10.15
2023-01-11T20:14:40.459Z,12.13
2023-01-11T20:17:07.841Z,13.05
2023-01-11T20:19:34.468Z,8.00
2023-01-11T20:22:01.109Z,11.55
2023-01-11T20:24:30.869Z,13.48
2023-01-11T20:26:59.647Z,7.28
2023-01-11T20:29:26.392Z,11.07
2023-01-11T20:31:53.281Z,11.35
2023-01-11T20:34:20.588Z,9.77
2023-01-11T20:36:48.814Z,13.73
2023-01-11T20:39:15.590Z,11.40
2023-01-11T20:41:48.623Z,12.45
2023-01-11T20:44:24.928Z,8.15
2023-01-11T20:46:53.279Z,10.38
2023-01-11T20:49:22.843Z,11.73
2023-01-11T20:51:49.881Z,12.10
2023-01-11T20:54:17.212Z,13.27
2023-01-11T20:56:46.512Z,15.13
2023-01-11T20:59:16.441Z,9.15
2023-01-11T21:01:43.268Z,15.82
2023-01-11T21:04:11.349Z,8.90
2023-01-11T21:06:40.835Z,11.40
2023-01-11T21:09:08.739Z,8.13
2023-01-11T21:11:35.879Z,7.72
2023-01-11T21:14:04.398Z,7.60
2023-01-11T21:16:31.444Z,7.20
2023-01-11T21:19:03.489Z,11.07
2023-01-11T21:21:33.212Z,8.48
2023-01-11T21:24:02.166Z,6.22
2023-01-11T21:26:29.936Z,8.63
2023-01-11T21:28:59.321Z,7.15
2023-01-11T21:31:31.512Z,6.47
2023-01-11T21:33:59.120Z,7.82
2023-01-11T21:36:27.326Z,5.10
2023-01-11T21:38:55.419Z,11.98
2023-01-11T21:41:43.171Z,8.13
2023-01-11T21:44:11.360Z,11.57
2023-01-11T21:46:38.982Z,5.75
2023-01-11T21:49:06.079Z,5.22
2023-01-11T21:51:34.346Z,8.82
2023-01-11T21:54:04.671Z,5.63
2023-01-11T21:56:31.437Z,6.93
2023-01-11T21:58:58.227Z,10.13
2023-01-11T22:01:24.870Z,8.55
2023-01-11T22:03:51.614Z,5.57
2023-01-11T22:06:18.346Z,12.68
2023-01-11T22:08:45.995Z,4.47
2023-01-11T22:11:15.428Z,8.70
2023-01-11T22:13:42.607Z,7.68
2023-01-11T22:16:15.766Z,5.93
2023-01-11T22:18:43.128Z,7.88
2023-01-11T22:21:19.621Z,5.97
2023-01-11T22:23:47.923Z,6.85
2023-01-11T22:26:16.747Z,10.13
2023-01-11T22:29:02.955Z,5.78
2023-01-11T22:31:30.625Z,7.70
2023-01-11T22:33:58.378Z,6.47
2023-01-11T22:36:26.336Z,5.47
2023-01-11T22:38:53.380Z,9.13
2023-01-11T22:41:20.964Z,3.95
2023-01-11T22:43:48.230Z,10.60
2023-01-11T22:46:18.065Z,6.53
2023-01-11T22:48:46.806Z,9.50
2023-01-11T22:51:15.166Z,7.30
2023-01-11T22:53:44.229Z,7.30
2023-01-11T22:56:13.029Z,7.95
2023-01-11T22:58:39.701Z,5.50
2023-01-11T23:01:24.283Z,8.75
2023-01-11T23:03:52.131Z,7.45
2023-01-11T23:06:24.116Z,4.50
2023-01-11T23:08:50.849Z,10.77
2023-01-11T23:11:39.247Z,6.78
2023-01-11T23:14:09.034Z,5.93
2023-01-11T23:16:36.781Z,11.70
2023-01-11T23:19:05.318Z,5.72
2023-01-11T23:21:32.032Z,6.32
2023-01-11T23:24:00.798Z,8.10
2023-01-11T23:26:27.562Z,5.00
2023-01-11T23:28:54.257Z,4.75
2023-01-11T23:31:23.164Z,9.27
2023-01-11T23:33:52.427Z,8.80
2023-01-11T23:36:21.557Z,13.75
2023-01-11T23:38:48.501Z,11.70
2023-01-11T23:41:36.606Z,8.50
2023-01-11T23:44:09.095Z,10.55
2023-01-11T23:46:55.671Z,4.95
2023-01-11T23:49:24.653Z,7.18
2023-01-11T23:51:51.647Z,8.85
2023-01-11T23:54:18.360Z,7.38
2023-01-11T23:56:45.119Z,7.18
2023-01-11T23:59:11.908Z,6.75
